Time;durP1;ratioP1;P1;durP2;ratioP2;P2;SDS_P1;SDS_P2;PMS_P1;PMS_P2;Temp;Humidity;BMP_temperature;BMP_pressure;BME280_temperature;BME280_humidity;BME280_pressure;Samples;Min_cycle;Max_cycle;Signal;HPM_P1;HPM_P2
2022/04/16 00:00:55;;;;;;;9.60;7.70;;;9.90;99.90;;;;;;4984514;28;20199;-77
2022/04/16 00:03:22;;;;;;;11.07;7.83;;;10.00;99.90;;;;;;4984184;28;20379;-77
2022/04/16 00:05:51;;;;;;;9.30;7.80;;;10.00;99.90;;;;;;4983067;28;20319;-78
2022/04/16 00:08:19;;;;;;;10.43;8.03;;;9.90;99.90;;;;;;4984296;28;20242;-79
2022/04/16 00:10:45;;;;;;;13.00;8.33;;;9.90;99.90;;;;;;4984442;28;20212;-77
2022/04/16 00:13:14;;;;;;;10.23;7.83;;;9.90;99.90;;;;;;4993217;28;20215;-78
2022/04/16 00:15:42;;;;;;;10.40;8.20;;;9.90;99.90;;;;;;4996983;28;20525;-77
2022/04/16 00:18:09;;;;;;;8.77;7.57;;;9.90;99.90;;;;;;5005910;23;20239;-78
2022/04/16 00:20:35;;;;;;;16.00;9.60;;;9.90;99.90;;;;;;4998662;28;20214;-78
2022/04/16 00:23:03;;;;;;;9.67;7.70;;;9.90;99.90;;;;;;4988374;28;20203;-79
2022/04/16 00:25:30;;;;;;;8.33;7.40;;;9.90;99.90;;;;;;4987663;28;20219;-79
2022/04/16 00:27:58;;;;;;;12.27;8.83;;;9.90;99.90;;;;;;4988006;28;20226;-78
2022/04/16 00:30:26;;;;;;;11.80;9.27;;;9.90;99.90;;;;;;4987592;28;20322;-78
2022/04/16 00:32:55;;;;;;;10.63;9.10;;;9.90;99.90;;;;;;4987732;28;20207;-79
2022/04/16 00:35:22;;;;;;;11.10;9.30;;;10.00;99.90;;;;;;4986876;28;20302;-78
2022/04/16 00:37:49;;;;;;;12.37;9.97;;;9.90;99.90;;;;;;4987373;28;20204;-77
2022/04/16 00:40:16;;;;;;;11.93;10.27;;;9.90;99.90;;;;;;4987982;28;20204;-76
2022/04/16 00:42:44;;;;;;;10.10;8.03;;;9.90;99.90;;;;;;4987142;28;20204;-78
2022/04/16 00:45:12;;;;;;;11.67;10.13;;;10.00;99.90;;;;;;4987440;28;21010;-78
2022/04/16 00:47:41;;;;;;;15.07;10.90;;;10.00;99.90;;;;;;4990099;28;20195;-76
2022/04/16 00:50:09;;;;;;;12.70;10.43;;;9.90;99.90;;;;;;5007572;28;20207;-77
2022/04/16 00:52:36;;;;;;;11.30;10.10;;;9.90;99.90;;;;;;5003584;28;20204;-78
2022/04/16 00:55:04;;;;;;;13.27;9.93;;;9.90;99.90;;;;;;4986857;28;20682;-76
2022/04/16 00:57:32;;;;;;;13.23;10.47;;;9.90;99.90;;;;;;4987838;28;20286;-79
2022/04/16 01:00:00;;;;;;;13.50;11.27;;;9.90;99.90;;;;;;4987190;28;20203;-76
2022/04/16 01:02:27;;;;;;;13.17;11.87;;;9.90;99.90;;;;;;4986476;28;21018;-77
2022/04/16 01:04:55;;;;;;;13.53;11.10;;;9.90;99.90;;;;;;4987627;28;20204;-78
2022/04/16 01:07:23;;;;;;;12.63;11.33;;;9.90;99.90;;;;;;4987107;28;20950;-79
2022/04/16 01:09:50;;;;;;;13.67;12.23;;;9.90;99.90;;;;;;4986381;28;20307;-78
2022/04/16 01:12:17;;;;;;;13.17;11.70;;;9.80;99.90;;;;;;4987611;28;20243;-79
2022/04/16 01:14:46;;;;;;;12.97;11.60;;;9.80;99.90;;;;;;4987272;28;20290;-79
2022/04/16 01:17:13;;;;;;;14.17;11.97;;;9.80;99.90;;;;;;4986290;28;20691;-78
2022/04/16 01:19:40;;;;;;;15.23;12.27;;;9.70;99.90;;;;;;4987763;28;20211;-76
2022/04/16 01:22:11;;;;;;;13.37;11.97;;;9.70;99.90;;;;;;4986364;28;20291;-78
2022/04/16 01:24:43;;;;;;;13.23;11.83;;;9.70;99.90;;;;;;4985680;28;20220;-75
2022/04/16 01:27:10;;;;;;;14.10;12.33;;;9.80;99.90;;;;;;4986898;28;20204;-75
2022/04/16 01:29:38;;;;;;;16.23;11.90;;;9.70;99.90;;;;;;4986401;28;20239;-75
2022/04/16 01:32:06;;;;;;;13.97;12.47;;;9.70;99.90;;;;;;4985831;28;20208;-76
2022/04/16 01:34:33;;;;;;;13.30;11.60;;;9.70;99.90;;;;;;4986388;28;20207;-74
2022/04/16 01:37:02;;;;;;;13.03;11.10;;;9.70;99.90;;;;;;4985590;28;20849;-75
2022/04/16 01:39:28;;;;;;;13.77;12.33;;;9.70;99.90;;;;;;4986702;28;20216;-79
2022/04/16 01:41:57;;;;;;;14.97;12.50;;;9.70;99.90;;;;;;4986697;28;20216;-78
2022/04/16 01:44:24;;;;;;;13.70;12.13;;;9.70;99.90;;;;;;4986383;28;20787;-77
2022/04/16 01:46:50;;;;;;;14.70;12.93;;;9.60;99.90;;;;;;4988263;28;20307;-79
2022/04/16 01:49:20;;;;;;;13.70;12.30;;;9.60;99.90;;;;;;5002055;28;20253;-78
2022/04/16 01:51:46;;;;;;;14.33;12.80;;;9.60;99.90;;;;;;5005364;28;20195;-79
2022/04/16 01:54:13;;;;;;;13.43;12.03;;;9.60;99.90;;;;;;4990974;28;20214;-76
2022/04/16 01:56:40;;;;;;;14.37;12.30;;;9.60;99.90;;;;;;4986288;28;20432;-75
2022/04/16 01:59:09;;;;;;;16.33;13.67;;;9.60;99.90;;;;;;4985635;28;20872;-75
2022/04/16 02:01:36;;;;;;;15.70;12.80;;;9.60;99.90;;;;;;4986293;28;20302;-75
2022/04/16 02:04:02;;;;;;;14.17;12.67;;;9.60;99.90;;;;;;4985610;28;20204;-76
2022/04/16 02:06:29;;;;;;;15.37;12.67;;;9.60;99.90;;;;;;4985789;28;20223;-76
2022/04/16 02:08:56;;;;;;;18.57;12.17;;;9.50;99.90;;;;;;4986017;28;20228;-77
2022/04/16 02:11:23;;;;;;;16.27;13.87;;;9.50;99.90;;;;;;4985800;28;20204;-78
2022/04/16 02:13:49;;;;;;;14.20;12.73;;;9.50;99.90;;;;;;4985050;28;20212;-76
2022/04/16 02:16:18;;;;;;;15.20;13.07;;;9.50;99.90;;;;;;4985912;28;20215;-78
2022/04/16 02:18:45;;;;;;;14.67;12.30;;;9.50;99.90;;;;;;4985339;28;20652;-77
2022/04/16 02:21:11;;;;;;;14.90;13.00;;;9.50;99.90;;;;;;4984621;28;20214;-78
2022/04/16 02:23:38;;;;;;;15.10;13.50;;;9.60;99.90;;;;;;4985622;28;20208;-79
2022/04/16 02:26:07;;;;;;;14.63;13.10;;;9.60;99.90;;;;;;4985355;28;20207;-79
2022/04/16 02:28:33;;;;;;;15.37;13.77;;;9.60;99.90;;;;;;4985526;28;20552;-78
2022/04/16 02:31:00;;;;;;;17.90;13.70;;;9.50;99.90;;;;;;4985767;28;20216;-77
2022/04/16 02:33:28;;;;;;;15.97;13.13;;;9.50;99.90;;;;;;4985334;28;20216;-77
2022/04/16 02:35:55;;;;;;;18.13;13.83;;;9.50;99.90;;;;;;4986147;28;20207;-76
2022/04/16 02:38:22;;;;;;;15.90;14.23;;;9.40;99.90;;;;;;4985740;28;20852;-76
2022/04/16 02:40:49;;;;;;;17.43;12.73;;;9.40;99.90;;;;;;4985029;28;20200;-79
2022/04/16 02:43:16;;;;;;;17.20;13.20;;;9.40;99.90;;;;;;4998666;28;20522;-77
2022/04/16 02:48:29;;;;;;;16.57;13.63;;;9.40;99.90;;;;;;4994150;28;20422;-77
2022/04/16 02:50:55;;;;;;;15.93;13.80;;;9.30;99.90;;;;;;4991946;28;20216;-76
2022/04/16 02:53:22;;;;;;;16.23;13.50;;;9.30;99.90;;;;;;4984664;28;20200;-77
2022/04/16 02:55:49;;;;;;;15.47;13.07;;;9.20;99.90;;;;;;4984613;28;20219;-76
2022/04/16 02:58:15;;;;;;;16.70;13.67;;;9.20;99.90;;;;;;4984919;28;20779;-74
2022/04/16 03:00:42;;;;;;;18.63;13.87;;;9.10;99.90;;;;;;4984699;28;20215;-75
2022/04/16 03:03:09;;;;;;;18.70;14.97;;;9.10;99.90;;;;;;4984643;28;20635;-78
2022/04/16 03:05:37;;;;;;;18.33;14.00;;;9.00;99.90;;;;;;4985278;28;20208;-79
2022/04/16 03:08:06;;;;;;;16.30;13.60;;;9.00;99.90;;;;;;4985449;28;20211;-77
2022/04/16 03:10:32;;;;;;;17.87;14.93;;;8.90;99.90;;;;;;4984712;28;20319;-79
2022/04/16 03:12:59;;;;;;;15.43;13.70;;;8.90;99.90;;;;;;4985645;28;20220;-78
2022/04/16 03:18:10;;;;;;;14.47;12.77;;;8.80;99.90;;;;;;4989167;28;20674;-78
2022/04/16 03:20:39;;;;;;;17.13;13.43;;;8.70;99.90;;;;;;5004329;28;20209;-78
2022/04/16 03:23:06;;;;;;;19.40;14.93;;;8.70;99.90;;;;;;5003689;28;20293;-75
2022/04/16 03:25:33;;;;;;;17.70;14.57;;;8.60;99.90;;;;;;5003156;28;20223;-75
2022/04/16 03:28:00;;;;;;;17.27;14.30;;;8.60;99.90;;;;;;5003774;28;20663;-78
2022/04/16 03:30:27;;;;;;;20.77;15.23;;;8.60;99.90;;;;;;5003296;28;20237;-76
2022/04/16 03:32:54;;;;;;;18.63;15.37;;;8.50;99.90;;;;;;5003876;28;20218;-75
2022/04/16 03:35:23;;;;;;;15.07;13.37;;;8.50;99.90;;;;;;5004324;28;20211;-77
2022/04/16 03:37:51;;;;;;;16.47;14.43;;;8.40;99.90;;;;;;5003179;28;20254;-75
2022/04/16 03:40:19;;;;;;;17.40;14.33;;;8.40;99.90;;;;;;5001589;28;20199;-76
2022/04/16 03:42:46;;;;;;;17.13;14.80;;;8.40;99.90;;;;;;4984565;28;20706;-77
2022/04/16 03:45:18;;;;;;;16.97;13.67;;;8.30;99.90;;;;;;4983687;28;20223;-79
2022/04/16 03:47:45;;;;;;;16.57;13.93;;;8.30;99.90;;;;;;4987452;28;20938;-79
2022/04/16 03:50:13;;;;;;;17.73;14.43;;;8.30;99.90;;;;;;5002840;28;20696;-77
2022/04/16 03:52:40;;;;;;;16.53;14.70;;;8.20;99.90;;;;;;5003277;28;20904;-80
2022/04/16 04:00:43;;;;;;;16.67;14.57;;;8.10;99.90;;;;;;4990850;28;20262;-76
2022/04/16 04:03:10;;;;;;;21.13;15.53;;;8.10;99.90;;;;;;4984296;28;20267;-79
2022/04/16 04:05:37;;;;;;;17.97;14.80;;;8.10;99.90;;;;;;4983869;28;20223;-76
2022/04/16 04:08:05;;;;;;;20.97;16.77;;;8.00;99.90;;;;;;4984483;28;20235;-79
2022/04/16 04:10:33;;;;;;;21.50;16.60;;;8.00;99.90;;;;;;4984412;28;20236;-78
2022/04/16 04:13:00;;;;;;;19.10;14.23;;;8.00;99.90;;;;;;4983542;28;20360;-78
2022/04/16 04:15:27;;;;;;;19.37;14.47;;;8.00;99.90;;;;;;4983925;28;20619;-79
2022/04/16 04:17:54;;;;;;;18.43;15.13;;;8.00;99.90;;;;;;4984416;28;20235;-79
2022/04/16 04:20:21;;;;;;;18.30;14.87;;;7.90;99.90;;;;;;4983503;28;20203;-79
2022/04/16 04:22:48;;;;;;;20.23;15.20;;;7.90;99.90;;;;;;4983874;28;20266;-78
2022/04/16 04:25:15;;;;;;;17.57;14.53;;;7.90;99.90;;;;;;4983526;28;20210;-78
2022/04/16 04:27:43;;;;;;;16.47;14.37;;;7.80;99.90;;;;;;4983812;28;20207;-78
2022/04/16 04:30:11;;;;;;;17.67;14.07;;;7.70;99.90;;;;;;4984602;28;20228;-78
2022/04/16 04:32:38;;;;;;;16.33;13.47;;;7.70;99.90;;;;;;4983969;28;20204;-78
2022/04/16 04:35:05;;;;;;;16.23;13.13;;;7.60;99.90;;;;;;4984184;28;20212;-77
2022/04/16 04:37:32;;;;;;;18.63;13.90;;;7.60;99.90;;;;;;4984262;28;20200;-77
2022/04/16 04:39:59;;;;;;;18.03;14.53;;;7.50;99.90;;;;;;4983011;28;20211;-78
2022/04/16 04:42:27;;;;;;;13.77;12.30;;;7.50;99.90;;;;;;4983681;28;20216;-78
2022/04/16 04:44:57;;;;;;;16.27;13.60;;;7.50;99.90;;;;;;4984151;28;20211;-77
2022/04/16 04:47:23;;;;;;;14.17;12.67;;;7.40;99.90;;;;;;4983570;28;20208;-79
2022/04/16 04:49:50;;;;;;;14.97;13.37;;;7.40;99.90;;;;;;4991958;28;20537;-78
2022/04/16 04:52:21;;;;;;;18.07;13.80;;;7.30;99.90;;;;;;4983770;28;20631;-78
2022/04/16 04:54:48;;;;;;;14.67;13.13;;;7.30;99.90;;;;;;4982960;28;20216;-79
2022/04/16 04:57:15;;;;;;;16.27;12.67;;;7.30;99.90;;;;;;4984040;28;20204;-79
2022/04/16 04:59:43;;;;;;;20.77;15.80;;;7.20;99.90;;;;;;4983972;28;20206;-78
2022/04/16 05:02:11;;;;;;;20.80;15.80;;;7.20;99.90;;;;;;4983313;28;20219;-77
2022/04/16 05:04:38;;;;;;;22.13;16.83;;;7.20;99.90;;;;;;4984093;28;20208;-79
2022/04/16 05:07:07;;;;;;;20.83;16.00;;;7.20;99.90;;;;;;4986856;28;20231;-78
2022/04/16 05:09:34;;;;;;;18.90;15.13;;;7.20;99.90;;;;;;4986650;28;20235;-79
2022/04/16 05:12:01;;;;;;;22.40;16.63;;;7.20;99.90;;;;;;4986700;28;20219;-79
2022/04/16 05:14:28;;;;;;;20.13;15.93;;;7.20;99.90;;;;;;4986041;28;20218;-78
2022/04/16 05:16:54;;;;;;;18.60;15.00;;;7.20;99.90;;;;;;4986076;28;20240;-79
2022/04/16 05:19:23;;;;;;;21.47;16.53;;;7.20;99.90;;;;;;4987257;28;20495;-78
2022/04/16 05:21:49;;;;;;;21.10;15.90;;;7.30;99.90;;;;;;4987299;28;20203;-79
2022/04/16 05:24:16;;;;;;;19.53;15.50;;;7.30;99.90;;;;;;4986458;28;20211;-79
2022/04/16 05:26:43;;;;;;;19.17;15.70;;;7.40;99.90;;;;;;4986918;28;20215;-75
2022/04/16 05:29:10;;;;;;;21.37;17.53;;;7.40;99.90;;;;;;4986076;28;20695;-76
2022/04/16 05:31:37;;;;;;;19.47;16.27;;;7.50;99.90;;;;;;4986629;28;20348;-76
2022/04/16 05:34:19;;;;;;;20.37;15.90;;;7.50;99.90;;;;;;4986155;28;20852;-76
2022/04/16 05:36:48;;;;;;;20.90;16.03;;;7.60;99.90;;;;;;5001519;28;20681;-78
2022/04/16 05:39:15;;;;;;;25.43;18.03;;;7.70;99.90;;;;;;5006398;28;20498;-78
2022/04/16 05:41:42;;;;;;;23.70;17.53;;;7.70;99.90;;;;;;5006567;28;20204;-79
2022/04/16 05:44:09;;;;;;;20.37;16.37;;;7.80;99.90;;;;;;5005435;28;20195;-78
2022/04/16 05:46:35;;;;;;;20.07;16.53;;;7.90;99.90;;;;;;4991490;28;20211;-77
2022/04/16 05:49:02;;;;;;;21.73;17.67;;;7.90;99.90;;;;;;5001931;28;20211;-78
2022/04/16 05:51:29;;;;;;;21.33;17.53;;;8.00;99.90;;;;;;4995844;28;20215;-79
2022/04/16 05:53:57;;;;;;;25.90;19.10;;;8.00;99.90;;;;;;5005921;28;20233;-76
2022/04/16 05:56:25;;;;;;;24.50;17.40;;;8.10;99.90;;;;;;4989504;28;20639;-79
2022/04/16 05:58:51;;;;;;;26.87;20.63;;;8.10;99.90;;;;;;4985354;28;20270;-79
2022/04/16 06:01:18;;;;;;;25.27;19.27;;;8.20;99.90;;;;;;4985688;28;20633;-77
2022/04/16 06:03:45;;;;;;;22.90;18.50;;;8.30;99.90;;;;;;4985738;28;20751;-78
2022/04/16 06:06:12;;;;;;;24.73;19.67;;;8.30;99.90;;;;;;4984933;28;20235;-79
2022/04/16 06:08:39;;;;;;;25.17;20.30;;;8.40;99.90;;;;;;4986124;28;20571;-79
2022/04/16 06:11:07;;;;;;;27.53;21.27;;;8.50;99.90;;;;;;4985021;28;20784;-79
2022/04/16 06:13:34;;;;;;;28.27;21.10;;;8.60;99.90;;;;;;4986220;28;20200;-78
2022/04/16 06:16:01;;;;;;;26.90;20.93;;;8.60;99.90;;;;;;4985551;28;20583;-78
2022/04/16 06:18:28;;;;;;;29.43;22.50;;;8.70;99.90;;;;;;4984299;28;20236;-78
2022/04/16 06:20:56;;;;;;;31.87;24.33;;;8.80;99.90;;;;;;4986080;28;20215;-78
2022/04/16 06:23:23;;;;;;;28.77;21.80;;;8.80;99.90;;;;;;4984983;28;20703;-77
2022/04/16 06:25:50;;;;;;;30.43;22.47;;;8.90;99.90;;;;;;4984827;28;20207;-79
2022/04/16 06:28:18;;;;;;;32.10;23.90;;;9.00;99.90;;;;;;4985407;28;20219;-79
2022/04/16 06:30:45;;;;;;;31.10;22.53;;;9.00;99.90;;;;;;4984917;28;20231;-79
2022/04/16 06:33:12;;;;;;;35.27;24.67;;;9.10;99.90;;;;;;4984374;28;20196;-79
2022/04/16 06:35:38;;;;;;;31.23;23.73;;;9.20;99.90;;;;;;4985049;28;20204;-79
2022/04/16 06:38:06;;;;;;;37.33;27.13;;;9.30;99.90;;;;;;4985238;28;20219;-79
2022/04/16 06:40:32;;;;;;;39.03;27.27;;;9.30;99.90;;;;;;4984042;28;20192;-79
2022/04/16 06:42:59;;;;;;;36.37;28.07;;;9.30;99.90;;;;;;4984673;28;20747;-79
2022/04/16 06:45:27;;;;;;;32.77;26.90;;;9.50;99.90;;;;;;4984949;28;20212;-77
2022/04/16 06:47:54;;;;;;;39.07;29.17;;;9.60;99.90;;;;;;4989044;28;20211;-77
2022/04/16 06:50:21;;;;;;;34.37;26.27;;;9.70;99.90;;;;;;5003150;28;20238;-78
2022/04/16 06:52:48;;;;;;;33.07;26.30;;;9.80;99.90;;;;;;5002540;28;20848;-79
2022/04/16 06:55:14;;;;;;;34.67;26.47;;;9.90;99.90;;;;;;5003952;28;20226;-79
2022/04/16 06:57:41;;;;;;;32.43;26.63;;;10.00;99.90;;;;;;5004130;28;20203;-77
2022/04/16 07:00:09;;;;;;;34.20;27.70;;;10.10;99.90;;;;;;4995660;28;20207;-79
2022/04/16 07:02:37;;;;;;;33.70;27.37;;;10.20;99.90;;;;;;4984469;28;20203;-77
2022/04/16 07:05:05;;;;;;;35.40;27.43;;;10.20;99.90;;;;;;4984369;28;20235;-78
2022/04/16 07:07:32;;;;;;;32.33;26.53;;;10.30;99.90;;;;;;4986494;28;20420;-79
2022/04/16 07:09:59;;;;;;;32.43;27.30;;;10.30;99.90;;;;;;4989317;28;20231;-78
2022/04/16 07:12:26;;;;;;;33.13;26.10;;;10.30;99.90;;;;;;4990144;28;20337;-77
2022/04/16 07:14:53;;;;;;;34.57;25.67;;;10.30;99.90;;;;;;4995875;28;20218;-79
2022/04/16 07:17:20;;;;;;;33.87;26.13;;;10.30;99.90;;;;;;4965193;28;20915;-75
2022/04/16 07:19:48;;;;;;;34.33;25.33;;;10.30;99.90;;;;;;4999941;28;20206;-75
2022/04/16 07:22:14;;;;;;;37.20;27.43;;;10.30;99.90;;;;;;5003084;28;20210;-79
2022/04/16 07:24:42;;;;;;;36.10;26.10;;;10.30;99.90;;;;;;4998446;28;20223;-77
2022/04/16 07:27:09;;;;;;;37.93;27.87;;;10.30;99.90;;;;;;4994345;28;20203;-78
2022/04/16 07:29:36;;;;;;;31.87;25.70;;;10.30;99.90;;;;;;4995660;28;20196;-79
2022/04/16 07:32:02;;;;;;;33.97;26.73;;;10.20;99.90;;;;;;5003904;28;20214;-78
2022/04/16 07:34:29;;;;;;;35.83;27.93;;;10.20;99.90;;;;;;5002013;28;20255;-79
2022/04/16 07:36:57;;;;;;;38.03;28.03;;;10.20;99.90;;;;;;5001009;28;20219;-79
2022/04/16 07:39:24;;;;;;;33.87;26.93;;;10.30;99.90;;;;;;4992481;28;20204;-78
2022/04/16 07:41:51;;;;;;;35.23;28.17;;;10.30;99.90;;;;;;4991839;28;20203;-78
2022/04/16 07:44:18;;;;;;;35.37;26.07;;;10.40;99.90;;;;;;4990997;28;21227;-79
2022/04/16 07:46:45;;;;;;;32.97;25.43;;;10.40;99.90;;;;;;4992753;28;20215;-77
2022/04/16 07:49:11;;;;;;;33.23;26.30;;;10.50;99.90;;;;;;4991690;28;20204;-79
2022/04/16 07:51:38;;;;;;;32.00;24.03;;;10.80;99.90;;;;;;4983232;28;20911;-78
2022/04/16 07:54:06;;;;;;;30.63;24.30;;;10.90;99.90;;;;;;4989240;28;20211;-78
2022/04/16 07:56:33;;;;;;;28.30;23.07;;;10.90;99.90;;;;;;4984241;28;20242;-79
2022/04/16 07:59:00;;;;;;;27.83;22.67;;;11.00;99.90;;;;;;4983954;28;20207;-77
2022/04/16 08:01:27;;;;;;;28.60;21.80;;;11.10;99.90;;;;;;4983852;28;20212;-76
2022/04/16 08:03:54;;;;;;;25.70;21.70;;;11.20;99.90;;;;;;4983700;28;20271;-78
2022/04/16 08:06:21;;;;;;;26.57;22.40;;;11.30;99.90;;;;;;4984098;28;20216;-77
2022/04/16 08:08:48;;;;;;;30.07;24.10;;;11.50;99.90;;;;;;4984072;28;20207;-78
2022/04/16 08:11:17;;;;;;;25.70;21.63;;;11.50;99.90;;;;;;4983532;28;20234;-77
2022/04/16 08:13:43;;;;;;;25.87;22.37;;;11.80;99.90;;;;;;4984083;28;20218;-79
2022/04/16 08:16:10;;;;;;;26.23;20.63;;;12.00;99.90;;;;;;4984149;28;20258;-76
2022/04/16 08:18:37;;;;;;;23.03;19.63;;;12.10;99.90;;;;;;4982251;28;20247;-78
2022/04/16 08:21:04;;;;;;;25.13;21.57;;;12.30;99.90;;;;;;4982502;28;20264;-78
2022/04/16 08:23:32;;;;;;;22.67;20.17;;;12.50;99.90;;;;;;4983747;28;20215;-77
2022/04/16 08:25:59;;;;;;;25.00;20.83;;;12.80;99.90;;;;;;4983235;28;20207;-78
2022/04/16 08:28:27;;;;;;;23.63;19.57;;;13.20;99.90;;;;;;4983368;28;20200;-77
2022/04/16 08:30:54;;;;;;;20.73;18.53;;;13.40;99.90;;;;;;4983853;28;20251;-78
2022/04/16 08:33:21;;;;;;;22.13;18.33;;;13.60;99.90;;;;;;4983151;28;20368;-77
2022/04/16 08:35:48;;;;;;;19.73;17.70;;;13.90;99.90;;;;;;4984417;28;20220;-78
2022/04/16 08:38:15;;;;;;;20.67;17.10;;;14.10;99.90;;;;;;4983251;28;20207;-78
2022/04/16 08:40:42;;;;;;;20.03;16.63;;;14.50;99.90;;;;;;4983645;28;20386;-79
2022/04/16 08:43:09;;;;;;;17.20;15.33;;;14.90;99.90;;;;;;4987231;28;20237;-78
2022/04/16 08:45:39;;;;;;;20.17;17.03;;;15.10;99.90;;;;;;4987318;28;20215;-77
2022/04/16 08:48:06;;;;;;;19.27;16.90;;;15.40;99.90;;;;;;4993356;28;20784;-78
2022/04/16 08:50:34;;;;;;;19.03;15.70;;;15.40;99.90;;;;;;4991434;28;20675;-80
2022/04/16 08:53:01;;;;;;;17.03;15.23;;;15.50;99.90;;;;;;4986571;28;20215;-79
2022/04/16 08:55:30;;;;;;;18.13;16.10;;;15.60;99.90;;;;;;4986444;28;20529;-80
2022/04/16 08:57:57;;;;;;;16.27;14.37;;;15.80;99.90;;;;;;4987027;28;20596;-77
2022/04/16 09:00:25;;;;;;;17.80;15.90;;;15.70;99.90;;;;;;4986607;28;20306;-78
2022/04/16 09:02:56;;;;;;;17.63;15.67;;;15.80;99.90;;;;;;4987141;28;20204;-78
2022/04/16 09:05:23;;;;;;;15.43;13.77;;;15.70;99.90;;;;;;4986885;28;20257;-78
2022/04/16 09:07:51;;;;;;;16.47;14.70;;;15.90;99.90;;;;;;4986466;28;20220;-77
2022/04/16 09:10:18;;;;;;;17.35;15.05;;;15.90;99.90;;;;;;4986899;28;20204;-78
2022/04/16 09:12:46;;;;;;;16.42;14.82;;;16.00;99.90;;;;;;4987057;28;20511;-79
2022/04/16 09:15:14;;;;;;;17.60;15.07;;;16.00;99.90;;;;;;4986364;28;20203;-75
2022/04/16 09:17:42;;;;;;;17.20;15.13;;;15.70;99.90;;;;;;4986706;28;20584;-78
2022/04/16 09:20:15;;;;;;;16.85;15.00;;;15.90;99.90;;;;;;4984446;28;20196;-77
2022/04/16 09:22:49;;;;;;;16.17;14.55;;;16.10;99.90;;;;;;4985838;28;20849;-78
2022/04/16 09:25:17;;;;;;;16.52;14.85;;;16.30;99.90;;;;;;4985873;28;20504;-77
2022/04/16 09:27:45;;;;;;;17.30;14.88;;;16.50;99.90;;;;;;4986748;28;20204;-77
2022/04/16 09:30:12;;;;;;;15.63;13.82;;;16.40;99.90;;;;;;4986944;28;20207;-78
2022/04/16 09:32:44;;;;;;;17.77;14.48;;;16.50;99.90;;;;;;4987362;28;20211;-78
2022/04/16 09:35:29;;;;;;;18.02;14.27;;;16.70;99.90;;;;;;4985346;28;20363;-79
2022/04/16 09:37:57;;;;;;;17.02;15.20;;;16.90;99.90;;;;;;4986306;28;20218;-78
2022/04/16 09:40:26;;;;;;;17.58;15.77;;;16.90;99.90;;;;;;4986912;28;20208;-75
2022/04/16 09:42:54;;;;;;;15.73;14.13;;;16.80;99.90;;;;;;4985652;28;20663;-78
2022/04/16 09:45:21;;;;;;;15.35;13.75;;;16.60;99.90;;;;;;4986098;28;20930;-75
2022/04/16 09:47:49;;;;;;;16.42;14.73;;;16.50;99.90;;;;;;4989819;28;20783;-74
2022/04/16 09:50:17;;;;;;;16.40;14.50;;;16.70;99.90;;;;;;5003776;28;20979;-78
2022/04/16 09:52:50;;;;;;;14.80;12.40;;;16.80;99.90;;;;;;4984352;28;20204;-79
2022/04/16 09:55:19;;;;;;;13.52;12.13;;;17.00;99.90;;;;;;4985632;28;20212;-75
2022/04/16 09:57:49;;;;;;;14.18;12.82;;;16.80;99.90;;;;;;4987511;28;20208;-77
2022/04/16 10:00:17;;;;;;;13.80;12.40;;;17.00;99.90;;;;;;4995049;28;20210;-79
2022/04/16 10:02:45;;;;;;;14.98;12.98;;;17.20;99.90;;;;;;4993871;28;20314;-79
2022/04/16 10:05:12;;;;;;;15.38;13.35;;;17.40;99.90;;;;;;4985411;28;20215;-79
2022/04/16 10:07:39;;;;;;;13.43;12.07;;;17.20;99.90;;;;;;4987233;28;20232;-80
2022/04/16 10:10:17;;;;;;;15.02;13.45;;;17.20;99.90;;;;;;4985616;28;20348;-80
2022/04/16 10:13:03;;;;;;;14.75;13.18;;;17.30;99.90;;;;;;4985641;28;20485;-82
2022/04/16 10:15:39;;;;;;;12.60;11.32;;;17.50;99.90;;;;;;4986376;28;20200;-79
2022/04/16 10:18:06;;;;;;;13.95;12.27;;;17.50;99.90;;;;;;4985084;28;20227;-78
2022/04/16 10:20:32;;;;;;;13.68;11.98;;;17.60;99.90;;;;;;4986074;28;20215;-80
2022/04/16 10:23:03;;;;;;;15.35;13.45;;;17.70;99.90;;;;;;4986020;28;20286;-78
2022/04/16 10:25:34;;;;;;;12.50;11.25;;;18.10;99.90;;;;;;4985664;28;20203;-78
2022/04/16 10:28:04;;;;;;;12.93;11.57;;;18.10;99.90;;;;;;4986772;28;20660;-76
2022/04/16 10:30:38;;;;;;;13.52;12.23;;;18.20;99.90;;;;;;4986342;28;21073;-79
2022/04/16 10:33:17;;;;;;;15.30;13.70;;;18.50;99.90;;;;;;4985140;28;20293;-77
2022/04/16 10:35:56;;;;;;;14.80;13.20;;;18.50;99.90;;;;;;4986248;28;20208;-80
2022/04/16 10:38:32;;;;;;;13.30;11.90;;;18.10;99.90;;;;;;4984787;28;20254;-79
2022/04/16 10:41:03;;;;;;;13.45;12.15;;;18.30;99.90;;;;;;4985216;28;20211;-77
2022/04/16 10:43:32;;;;;;;15.30;13.32;;;18.20;99.90;;;;;;4985213;28;20596;-79
2022/04/16 10:46:04;;;;;;;13.88;12.48;;;18.40;99.90;;;;;;4985167;28;20223;-77
2022/04/16 10:48:33;;;;;;;14.75;13.25;;;18.20;99.90;;;;;;4995257;28;20206;-79
2022/04/16 10:51:01;;;;;;;14.32;12.82;;;18.00;99.90;;;;;;5004265;28;20230;-74
2022/04/16 10:53:29;;;;;;;12.20;11.02;;;17.70;99.90;;;;;;5003749;28;20202;-77
2022/04/16 10:55:58;;;;;;;13.00;11.70;;;17.80;99.90;;;;;;4987011;28;20207;-77
2022/04/16 10:58:30;;;;;;;13.52;12.13;;;18.10;99.90;;;;;;4984953;28;20296;-77
2022/04/16 11:01:09;;;;;;;13.45;12.13;;;18.10;99.90;;;;;;4984342;28;20202;-75
2022/04/16 11:03:46;;;;;;;13.05;11.40;;;18.00;99.90;;;;;;4984731;28;20220;-78
2022/04/16 11:06:13;;;;;;;11.10;9.95;;;18.30;99.90;;;;;;4984954;28;20906;-82
2022/04/16 11:08:41;;;;;;;12.77;10.82;;;18.30;99.90;;;;;;4985422;28;20306;-78
2022/04/16 11:11:09;;;;;;;10.65;9.63;;;18.30;99.90;;;;;;4985720;28;20267;-78
2022/04/16 11:13:39;;;;;;;11.95;10.75;;;18.30;99.90;;;;;;4984336;28;20226;-78
2022/04/16 11:16:06;;;;;;;10.75;9.68;;;18.20;99.90;;;;;;4984933;28;20208;-79
2022/04/16 11:18:41;;;;;;;10.52;9.40;;;18.40;99.90;;;;;;4984684;28;20248;-77
2022/04/16 11:21:09;;;;;;;10.75;9.20;;;18.30;99.90;;;;;;4984286;28;20202;-78
2022/04/16 11:23:45;;;;;;;11.93;10.57;;;17.90;99.90;;;;;;4984608;28;20210;-78
2022/04/16 11:34:29;;;;;;;11.20;9.57;;;18.40;99.90;;;;;;5003004;28;20209;-78
2022/04/16 11:36:55;;;;;;;11.07;9.70;;;18.60;99.90;;;;;;5004212;28;20244;-79
2022/04/16 11:39:24;;;;;;;10.95;9.52;;;18.60;99.90;;;;;;4996084;28;20204;-78
2022/04/16 11:41:53;;;;;;;11.60;10.38;;;18.70;99.90;;;;;;4984584;28;20655;-83
2022/04/16 11:44:41;;;;;;;11.20;9.80;;;18.80;99.90;;;;;;4985025;28;20209;-78
2022/04/16 11:47:10;;;;;;;9.98;9.02;;;18.70;99.90;;;;;;4985625;28;20216;-79
2022/04/16 11:49:37;;;;;;;10.02;9.02;;;18.80;99.90;;;;;;5003052;28;20207;-75
2022/04/16 11:52:05;;;;;;;10.80;8.57;;;19.00;99.90;;;;;;4984816;28;20786;-76
2022/04/16 11:54:32;;;;;;;8.57;7.78;;;19.00;99.90;;;;;;4985348;28;20294;-79
2022/04/16 11:56:59;;;;;;;9.55;8.43;;;19.10;99.90;;;;;;5003133;28;20203;-76
2022/04/16 11:59:29;;;;;;;9.07;8.18;;;19.30;99.90;;;;;;5003465;28;20218;-76
2022/04/16 12:02:05;;;;;;;9.05;8.15;;;19.00;99.90;;;;;;4991755;28;20204;-74
2022/04/16 12:04:41;;;;;;;7.50;6.80;;;18.80;99.90;;;;;;4983396;28;20211;-75
2022/04/16 12:07:17;;;;;;;7.30;6.60;;;19.10;99.90;;;;;;4984240;28;20227;-78
2022/04/16 12:09:47;;;;;;;7.53;6.82;;;19.30;99.90;;;;;;4983325;28;20265;-76
2022/04/16 12:12:19;;;;;;;7.22;6.47;;;19.50;99.90;;;;;;4991931;28;20223;-76
2022/04/16 12:14:47;;;;;;;8.15;7.30;;;19.50;99.90;;;;;;4992500;28;20620;-80
2022/04/16 12:17:24;;;;;;;8.05;7.18;;;19.50;99.90;;;;;;4985820;28;20243;-76
2022/04/16 12:20:07;;;;;;;7.57;6.82;;;19.70;99.90;;;;;;4989115;28;20216;-74
2022/04/16 12:22:34;;;;;;;7.97;7.15;;;19.70;99.90;;;;;;4986327;28;20207;-78
2022/04/16 12:25:11;;;;;;;7.85;6.93;;;19.60;99.90;;;;;;5000926;28;20219;-75
2022/04/16 12:27:44;;;;;;;8.57;7.38;;;19.90;99.90;;;;;;4997670;28;20270;-82
2022/04/16 12:30:14;;;;;;;6.68;5.97;;;20.00;99.90;;;;;;5004233;28;20338;-80
2022/04/16 12:32:42;;;;;;;7.60;6.35;;;20.10;99.90;;;;;;5007834;28;20219;-79
2022/04/16 12:35:09;;;;;;;6.30;5.68;;;20.20;99.90;;;;;;5008056;28;20237;-81
2022/04/16 12:37:37;;;;;;;5.38;4.88;;;20.00;99.90;;;;;;4996052;28;20299;-79
2022/04/16 12:40:08;;;;;;;6.30;5.63;;;19.90;99.90;;;;;;4987422;28;20823;-79
2022/04/16 12:42:34;;;;;;;5.13;4.72;;;19.90;99.90;;;;;;4987597;28;20199;-82
2022/04/16 12:45:01;;;;;;;6.70;5.20;;;19.50;99.90;;;;;;4988953;28;20208;-76
2022/04/16 12:47:28;;;;;;;5.72;5.22;;;19.70;99.90;;;;;;4988429;28;20211;-77
2022/04/16 12:49:56;;;;;;;5.75;5.15;;;19.90;99.90;;;;;;4984855;28;20193;-77
2022/04/16 12:52:23;;;;;;;5.70;4.80;;;19.70;99.90;;;;;;4986544;28;20225;-81
2022/04/16 12:54:50;;;;;;;5.35;4.85;;;19.70;99.90;;;;;;4986726;28;20588;-78
2022/04/16 12:57:17;;;;;;;5.15;4.65;;;19.80;99.90;;;;;;4986582;28;20208;-76
2022/04/16 12:59:44;;;;;;;4.95;4.50;;;19.60;99.90;;;;;;4985878;28;20858;-75